METAR Data
IDs: Format: Raw Decoded Include TAF

Data at: 0857 UTC 20 Sep 2018

PAAQ 200853Z AUTO 00000KT 10SM SCT019 BKN026 BKN070 09/07 A3012 RMK AO2 SLP200 T00940072 401500089 50000 TSNO
PAAQ 200753Z AUTO 00000KT 10SM BKN018 BKN024 OVC080 09/07 A3012 RMK AO2 SLP202 T00940072 TSNO
PAAQ 200700Z AUTO 13004KT 10SM FEW018 BKN029 OVC035 11/08 A3012 RMK AO2 T01060083 TSNO
PAAQ 200653Z AUTO 13003KT 10SM SCT024 BKN031 OVC075 11/08 A3012 RMK AO2 SLP202 T01060083 TSNO
PAAQ 200646Z AUTO 12004KT 10SM SCT025 BKN031 OVC075 11/08 A3012 RMK AO2 T01060083 TSNO
PAAQ 200613Z AUTO 12003KT 10SM SCT023 BKN029 OVC075 11/09 A3012 RMK AO2 T01110089 TSNO
PAAQ 200605Z AUTO 00000KT 10SM FEW023 SCT029 OVC075 11/09 A3012 RMK AO2 T01060089 TSNO
PAAQ 200553Z AUTO 12004KT 10SM BKN028 OVC075 11/09 A3012 RMK AO2 SLP201 T01110094 10144 20106 51001 TSNO
PAAQ 200548Z AUTO 11004KT 10SM BKN028 OVC075 11/09 A3011 RMK AO2 TSNO
PAAQ 200453Z AUTO 00000KT 10SM BKN030 12/09 A3011 RMK AO2 SLP200 T01170094 TSNO
PAAQ 200353Z AUTO 14004KT 10SM FEW042 BKN055 12/09 A3011 RMK AO2 SLP199 T01220094 TSNO
PAAQ 200309Z AUTO 15004KT 10SM SCT027 BKN039 BKN047 13/09 A3012 RMK AO2 T01330094 TSNO
PAAQ 200253Z AUTO 18004KT 10SM BKN029 OVC037 13/09 A3011 RMK AO2 SLP199 T01330089 56005 TSNO
PAAQ 200153Z AUTO 17005KT 10SM CLR 14/09 A3011 RMK AO2 SLP199 T01440094 TSNO
PAAQ 200053Z AUTO VRB04KT 10SM CLR 14/09 A3012 RMK AO2 SLP201 T01440094 TSNO
PAAQ 192353Z 16004KT 10SM BKN070 14/09 A3013 RMK AO2 SLP205 T01390094 10150 20094 56013
PAAQ 192316Z VRB05KT 10SM FEW020 SCT026 OVC065 14/10 A3014 RMK AO2 T01390100
PAAQ 192253Z 18005KT 10SM FEW018 OVC023 14/10 A3015 RMK AO2 SLP210 T01390100
PAAQ 192219Z 20006KT 10SM SCT017 BKN022 BKN065 14/10 A3015 RMK AO2 T01390100
PAAQ 192153Z 16004KT 10SM SCT007 SCT009 BKN030 14/10 A3015 RMK AO2 SLP212 T01390100
PAAQ 192053Z 15004KT 10SM FEW008 13/10 A3017 RMK AO2 SLP218 T01280100 58006
PAAQ 191953Z 15003KT 10SM SCT006 11/09 A3018 RMK AO2 SLP222 T01110094
PAAQ 191906Z 00000KT 10SM OVC006 11/09 A3018 RMK AO2 T01060094
PAAQ 191853Z 12003KT 10SM OVC005 11/09 A3019 RMK AO2 SLP224 T01060094
PAAQ 191828Z 14004KT 10SM OVC005 10/09 A3019 RMK AO2 T01000089
PAAQ 191753Z 14003KT 10SM OVC008 09/08 A3019 RMK AO2 CIG 005V009 SLP225 T00940083 10111 20089 52001
PAAQ 191653Z 00000KT 10SM BKN007 OVC018 09/08 A3019 RMK AO2 SLP224 T00940083
PAAQ 191553Z 00000KT 10SM FEW009 OVC019 09/08 A3019 RMK AO2 SLP224 T00940083
PAAQ 191453Z AUTO 00000KT 10SM FEW009 SCT013 OVC019 09/08 A3019 RMK AO2 SLP223 T00940083 56002 TSNO
PAAQ 191430Z AUTO 11003KT 10SM BKN010 OVC015 10/09 A3018 RMK AO2 CIG 008V012 T01000089 TSNO
PAAQ 191353Z AUTO 00000KT 10SM OVC008 11/08 A3018 RMK AO2 SLP223 T01060083 TSNO
PAAQ 191253Z AUTO 16004KT 10SM OVC008 09/08 A3019 RMK AO2 SLP225 T00940083 TSNO
PAAQ 191223Z AUTO 00000KT 10SM BKN009 OVC017 11/09 A3019 RMK AO2 T01060094 TSNO
PAAQ 191216Z AUTO 00000KT 10SM BKN011 OVC017 11/09 A3019 RMK AO2 T01110094 TSNO
PAAQ 191153Z AUTO 00000KT 10SM OVC016 11/09 A3020 RMK AO2 SLP227 T01110094 10122 20100 51004 TSNO
PAAQ 191108Z AUTO 00000KT 10SM OVC015 11/09 A3020 RMK AO2 T01110089 TSNO
PAAQ 191053Z AUTO 00000KT 10SM OVC014 11/09 A3019 RMK AO2 SLP227 T01110089 TSNO
PAAQ 191012Z AUTO 00000KT 10SM BKN014 OVC024 11/09 A3019 RMK AO2 T01110094 TSNO
PAAQ 190953Z AUTO 00000KT 10SM SCT014 BKN022 OVC033 11/09 A3019 RMK AO2 SLP225 T01060094 TSNO
PAAQ 190853Z AUTO 00000KT 10SM FEW017 BKN027 OVC032 11/09 A3018 RMK AO2 SLP223 T01110089 401670083 51002 TSNO
PAAQ 190753Z AUTO 00000KT 10SM BKN031 11/09 A3018 RMK AO2 SLP223 T01060089 TSNO
PAAQ 190653Z AUTO 00000KT 10SM SCT031 OVC110 12/09 A3018 RMK AO2 SLP222 T01220094 TSNO
PAAQ 190553Z AUTO 00000KT 10SM BKN070 OVC110 12/09 A3018 RMK AO2 SLP222 T01220094 10167 20122 51005 TSNO
PAAQ 190453Z AUTO 00000KT 10SM FEW026 BKN035 OVC080 13/09 A3018 RMK AO2 SLP220 T01280089 TSNO
PAAQ 190353Z AUTO 00000KT 10SM OVC065 14/09 A3017 RMK AO2 SLP217 T01390089 TSNO
PAAQ 190253Z AUTO 24005KT 10SM BKN070 OVC110 14/09 A3016 RMK AO2 SLP215 T01440089 56004 TSNO
PAAQ 190153Z 23007KT 10SM SCT030 BKN075 16/09 A3017 RMK AO2 SLP217 T01560094
PAAQ 190053Z 22006KT 10SM SCT030 BKN070 16/08 A3017 RMK AO2 SLP217 T01610083
PAAQ 182353Z 22007KT 10SM SCT027 BKN075 16/10 A3018 RMK AO2 SLP220 T01560100 10161 20089 58007
PAAQ 182253Z 14004KT 10SM FEW025 SCT040 BKN080 16/11 A3018 RMK AO2 SLP222 T01560106
PAAQ 182153Z 13005KT 10SM FEW025 SCT040 BKN075 14/10 A3019 RMK AO2 SLP226 T01440100